Time;durP1;ratioP1;P1;durP2;ratioP2;P2;SDS_P1;SDS_P2;PMS_P1;PMS_P2;Temp;Humidity;BMP_temperature;BMP_pressure;BME280_temperature;BME280_humidity;BME280_pressure;Samples;Min_cycle;Max_cycle;Signal;HPM_P1;HPM_P2
2023/07/01 00:01:25;;;;;;;9.77;5.65;;;;;;;19.38;72.02;99270.03;10462168;28;20041;-85
2023/07/01 00:06:27;;;;;;;9.23;5.50;;;;;;;19.40;72.51;99262.13;10473785;28;20045;-83
2023/07/01 00:11:29;;;;;;;10.88;6.47;;;;;;;19.36;73.09;99260.47;10481626;28;20033;-84
2023/07/01 00:16:31;;;;;;;10.25;6.35;;;;;;;19.40;73.76;99258.53;10477827;28;20052;-84
2023/07/01 00:21:34;;;;;;;10.88;6.50;;;;;;;19.44;73.45;99257.44;10467340;28;20492;-83
2023/07/01 00:26:37;;;;;;;10.43;5.85;;;;;;;19.44;74.09;99243.53;10495142;28;20044;-85
2023/07/01 00:31:39;;;;;;;8.90;6.60;;;;;;;19.33;74.97;99239.78;10472497;28;20048;-84
2023/07/01 00:36:41;;;;;;;11.43;6.40;;;;;;;19.24;75.77;99231.69;10455425;28;20040;-82
2023/07/01 00:41:52;;;;;;;9.43;5.35;;;;;;;19.23;77.05;99234.84;10458952;28;20055;-84
2023/07/01 00:46:54;;;;;;;11.20;6.95;;;;;;;19.19;77.20;99232.00;10453356;28;20056;-84
2023/07/01 00:51:57;;;;;;;8.55;6.25;;;;;;;19.15;77.42;99227.56;10477244;28;20029;-83
2023/07/01 00:57:03;;;;;;;16.08;6.68;;;;;;;19.17;76.02;99222.44;10461592;28;20045;-85
2023/07/01 01:02:18;;;;;;;12.57;6.87;;;;;;;19.05;75.69;99217.88;10473696;28;20048;-87
2023/07/01 01:07:33;;;;;;;14.98;5.90;;;;;;;18.89;75.05;99212.44;10470996;28;21032;-83
2023/07/01 01:12:36;;;;;;;8.60;5.82;;;;;;;18.92;75.02;99208.94;10481796;28;20032;-85
2023/07/01 01:17:43;;;;;;;12.65;6.50;;;;;;;18.84;75.10;99200.84;10459608;28;20056;-85
2023/07/01 01:22:57;;;;;;;9.40;6.13;;;;;;;18.89;74.84;99203.31;10468879;28;20049;-84
2023/07/01 01:28:00;;;;;;;12.93;6.45;;;;;;;18.93;74.76;99199.44;10478256;28;20036;-85
2023/07/01 01:33:02;;;;;;;11.02;5.85;;;;;;;19.03;74.72;99191.63;10455262;28;20033;-83
2023/07/01 01:38:08;;;;;;;13.25;6.43;;;;;;;19.06;74.40;99179.75;10510849;28;20037;-83
2023/07/01 01:43:45;;;;;;;13.40;6.45;;;;;;;19.09;74.72;99188.16;10491215;28;20511;-85
2023/07/01 01:48:48;;;;;;;11.85;7.43;;;;;;;19.12;75.61;99192.97;10340596;28;20418;-85
2023/07/01 01:54:24;;;;;;;14.18;7.82;;;;;;;19.15;76.23;99180.31;10428338;28;20045;-82
2023/07/01 01:59:30;;;;;;;12.50;7.18;;;;;;;19.23;76.65;99163.34;10356582;28;20057;-85
2023/07/01 02:04:32;;;;;;;19.65;9.10;;;;;;;19.32;76.54;99159.50;10409939;28;20053;-85
2023/07/01 02:09:34;;;;;;;20.20;10.25;;;;;;;19.43;76.45;99169.56;10407688;28;20040;-82
2023/07/01 02:14:36;;;;;;;17.77;9.45;;;;;;;19.46;77.45;99166.06;10411241;28;20048;-84
2023/07/01 02:19:39;;;;;;;19.67;10.32;;;;;;;19.54;77.79;99159.44;10432081;28;20455;-85
2023/07/01 02:24:41;;;;;;;18.00;10.32;;;;;;;19.56;78.55;99142.34;10412331;28;20040;-82
2023/07/01 02:29:44;;;;;;;16.88;10.80;;;;;;;19.60;78.49;99148.75;10410802;28;20041;-83
2023/07/01 02:34:47;;;;;;;22.58;11.93;;;;;;;19.77;78.33;99137.06;10409043;28;20048;-83
2023/07/01 02:39:50;;;;;;;22.02;12.02;;;;;;;20.01;78.08;99141.31;10416693;28;20400;-84
2023/07/01 02:44:52;;;;;;;21.88;12.80;;;;;;;20.23;76.81;99131.19;10461442;28;20063;-85
2023/07/01 02:49:56;;;;;;;21.48;12.27;;;;;;;20.27;76.88;99132.03;10434844;28;20056;-85
2023/07/01 02:54:59;;;;;;;21.27;12.98;;;;;;;20.40;77.34;99132.56;10450555;28;20531;-83
2023/07/01 03:00:01;;;;;;;22.30;12.52;;;;;;;20.51;77.23;99127.94;10403429;28;20052;-82
2023/07/01 03:05:04;;;;;;;21.88;12.02;;;;;;;20.84;75.75;99126.22;10446751;28;20064;-82
2023/07/01 03:10:07;;;;;;;18.70;10.82;;;;;;;21.11;75.03;99122.00;10417582;28;20049;-85
2023/07/01 03:15:09;;;;;;;18.95;10.57;;;;;;;21.39;73.94;99117.81;10464854;28;20436;-84
2023/07/01 03:20:22;;;;;;;16.63;9.38;;;;;;;21.44;73.78;99115.44;10433026;28;20037;-84
2023/07/01 03:25:27;;;;;;;16.75;9.50;;;;;;;21.74;72.08;99131.16;10430004;28;20037;-83
2023/07/01 03:30:30;;;;;;;14.43;9.75;;;;;;;22.11;70.29;99130.91;10422267;28;20040;-85
2023/07/01 03:35:33;;;;;;;12.02;9.02;;;;;;;22.50;69.03;99126.16;10415102;28;20045;-82
2023/07/01 03:40:36;;;;;;;11.95;7.82;;;;;;;22.72;67.40;99123.38;10416926;28;20049;-83
2023/07/01 03:45:38;;;;;;;11.95;7.45;;;;;;;23.09;66.02;99129.38;10435858;28;20056;-85
2023/07/01 03:50:40;;;;;;;13.15;8.02;;;;;;;23.54;64.31;99115.66;10457024;28;20468;-84
2023/07/01 03:55:43;;;;;;;14.05;8.57;;;;;;;23.79;63.12;99107.19;10466023;28;20049;-82
2023/07/01 04:00:45;;;;;;;16.17;8.25;;;;;;;24.06;62.36;99101.84;10438166;28;20045;-83
2023/07/01 04:05:48;;;;;;;12.05;7.35;;;;;;;24.24;61.56;99085.69;10436748;28;20408;-83
2023/07/01 04:10:50;;;;;;;11.18;8.10;;;;;;;24.25;61.09;99092.09;10440617;28;20052;-83
2023/07/01 04:15:52;;;;;;;14.13;7.93;;;;;;;24.29;61.05;99090.91;10438343;28;20048;-83
2023/07/01 04:20:54;;;;;;;10.13;7.18;;;;;;;24.04;61.53;99088.22;10421334;28;20051;-83
2023/07/01 04:25:56;;;;;;;13.93;6.85;;;;;;;23.87;62.51;99086.34;10436978;28;20626;-84
2023/07/01 04:30:59;;;;;;;12.30;7.25;;;;;;;23.65;62.43;99087.66;10420628;28;20053;-82
2023/07/01 04:36:02;;;;;;;10.40;7.07;;;;;;;23.48;63.66;99103.28;10455972;28;20052;-82
2023/07/01 04:41:05;;;;;;;10.10;7.15;;;;;;;23.34;64.39;99106.13;10438838;28;20033;-82
2023/07/01 04:46:07;;;;;;;9.10;6.50;;;;;;;22.92;65.75;99104.22;10476281;28;20427;-81
2023/07/01 04:51:09;;;;;;;14.45;6.95;;;;;;;22.44;66.88;99099.00;10478323;28;20032;-82
2023/07/01 04:56:11;;;;;;;11.20;6.97;;;;;;;22.06;68.99;99101.34;10477697;28;20048;-82
2023/07/01 05:01:14;;;;;;;14.43;7.05;;;;;;;21.86;69.68;99091.69;10452450;28;20412;-82
2023/07/01 05:06:16;;;;;;;11.68;7.07;;;;;;;21.90;69.75;99084.13;10477004;28;20036;-82
2023/07/01 05:11:19;;;;;;;7.75;6.15;;;;;;;22.10;69.40;99079.00;10511635;28;20075;-84
2023/07/01 05:16:21;;;;;;;8.77;6.25;;;;;;;22.42;68.65;99074.25;10487541;28;20037;-82
2023/07/01 05:21:23;;;;;;;10.23;6.45;;;;;;;22.40;68.81;99076.66;10495294;28;20041;-81
2023/07/01 05:26:26;;;;;;;9.13;6.25;;;;;;;22.55;68.22;99074.63;10475595;28;20062;-83
2023/07/01 05:31:28;;;;;;;10.57;6.07;;;;;;;23.09;67.06;99073.44;10485142;28;20056;-82
2023/07/01 05:36:32;;;;;;;11.73;6.43;;;;;;;23.56;65.63;99073.25;10493562;28;20044;-82
2023/07/01 05:41:34;;;;;;;8.73;5.97;;;;;;;24.55;62.54;99072.69;10506207;28;20028;-82
2023/07/01 05:46:38;;;;;;;10.55;6.30;;;;;;;24.73;61.82;99064.09;10508887;28;20551;-82
2023/07/01 05:51:40;;;;;;;9.70;6.32;;;;;;;25.16;60.38;99055.28;10506441;28;20060;-82
2023/07/01 05:56:42;;;;;;;8.95;5.75;;;;;;;26.26;57.69;99050.22;10461816;28;20412;-83
2023/07/01 06:01:44;;;;;;;7.18;5.28;;;;;;;27.14;55.03;99049.94;10476869;28;20039;-82
2023/07/01 06:06:46;;;;;;;7.38;5.68;;;;;;;27.58;53.46;99049.44;10477254;28;20527;-82
2023/07/01 06:11:48;;;;;;;8.82;5.15;;;;;;;28.18;51.39;99055.00;10509998;28;20048;-83
2023/07/01 06:16:51;;;;;;;7.50;5.55;;;;;;;28.76;50.26;99038.25;10451469;28;20052;-82
2023/07/01 06:21:53;;;;;;;6.75;5.00;;;;;;;28.71;49.77;99053.69;10440443;28;20056;-82
2023/07/01 06:26:55;;;;;;;6.95;4.88;;;;;;;29.32;48.67;99038.75;10525491;28;20032;-83
2023/07/01 06:31:57;;;;;;;7.90;5.43;;;;;;;28.61;49.10;99031.38;10476888;28;20064;-82
2023/07/01 06:37:00;;;;;;;8.45;5.15;;;;;;;27.31;52.13;99032.69;10477154;28;20048;-83
2023/07/01 06:42:03;;;;;;;6.35;5.05;;;;;;;26.59;53.57;99026.00;10492311;28;20048;-82
2023/07/01 06:47:08;;;;;;;6.35;5.15;;;;;;;25.99;55.18;99036.97;10488286;28;20055;-83
2023/07/01 06:52:10;;;;;;;7.43;5.65;;;;;;;25.95;54.87;99038.25;10434029;28;20052;-82
2023/07/01 06:57:13;;;;;;;7.05;4.72;;;;;;;26.44;53.43;99023.44;10467640;28;20041;-82
2023/07/01 07:02:16;;;;;;;9.82;5.35;;;;;;;27.50;51.16;99019.84;10450037;28;20053;-83
2023/07/01 07:07:18;;;;;;;6.22;4.38;;;;;;;27.82;50.36;99013.53;10457025;28;20033;-82
2023/07/01 07:12:20;;;;;;;6.43;4.75;;;;;;;28.46;48.15;99008.38;10475663;28;20048;-85
2023/07/01 07:17:24;;;;;;;9.23;5.20;;;;;;;28.40;47.71;99010.16;10469553;28;20589;-86
2023/07/01 07:22:26;;;;;;;4.70;4.20;;;;;;;28.24;48.08;98996.81;10464817;28;20056;-83
2023/07/01 07:27:29;;;;;;;7.53;5.13;;;;;;;28.41;48.25;99001.25;10495941;28;20040;-83
2023/07/01 07:32:31;;;;;;;5.65;4.55;;;;;;;28.32;46.94;98998.25;10496730;28;20047;-82
2023/07/01 07:37:33;;;;;;;5.32;4.70;;;;;;;27.80;47.44;98984.97;10473881;28;20040;-83
2023/07/01 07:42:36;;;;;;;6.40;4.95;;;;;;;27.79;47.33;98980.56;10497071;28;20518;-82
2023/07/01 07:47:38;;;;;;;5.18;4.05;;;;;;;27.07;46.27;98982.50;10508643;28;20056;-82
2023/07/01 07:52:40;;;;;;;4.10;3.58;;;;;;;26.58;47.06;98980.19;10443647;28;20060;-83
2023/07/01 07:57:42;;;;;;;4.25;3.85;;;;;;;26.32;47.82;98975.41;10439718;28;20412;-83
2023/07/01 08:02:47;;;;;;;6.60;4.03;;;;;;;26.43;47.83;98967.63;10468376;28;20200;-82
2023/07/01 08:07:50;;;;;;;7.00;4.28;;;;;;;26.90;48.00;98967.53;10469420;28;20044;-85
2023/07/01 08:12:52;;;;;;;6.18;3.95;;;;;;;27.51;45.28;98965.06;10432869;28;20040;-85
2023/07/01 08:17:54;;;;;;;5.22;4.28;;;;;;;27.66;44.66;98962.75;10432423;28;20056;-83
2023/07/01 08:22:56;;;;;;;5.93;4.70;;;;;;;27.27;44.29;98963.59;10493411;28;20492;-82
2023/07/01 08:27:58;;;;;;;5.82;5.13;;;;;;;26.46;46.29;98969.56;10440068;28;20049;-81
2023/07/01 08:33:00;;;;;;;5.70;4.70;;;;;;;26.43;46.08;98968.41;10436876;28;20048;-82
2023/07/01 08:38:02;;;;;;;6.47;4.40;;;;;;;26.15;47.61;98963.22;10464404;28;20411;-82
2023/07/01 08:43:06;;;;;;;7.32;4.95;;;;;;;26.46;47.32;98951.88;10460180;28;20044;-81
2023/07/01 08:48:09;;;;;;;8.73;4.65;;;;;;;27.02;46.70;98959.25;10479899;28;20063;-87
2023/07/01 08:53:11;;;;;;;7.65;4.88;;;;;;;27.87;45.71;98953.78;10434749;28;20536;-84
2023/07/01 08:58:14;;;;;;;7.13;4.75;;;;;;;28.31;44.76;98947.94;10472311;28;20412;-84
2023/07/01 09:03:16;;;;;;;6.85;4.78;;;;;;;28.72;43.71;98955.69;10455938;28;20493;-81
2023/07/01 09:08:19;;;;;;;7.88;5.18;;;;;;;28.77;42.80;98960.78;10428714;28;20036;-83
2023/07/01 09:13:22;;;;;;;5.97;4.75;;;;;;;28.84;42.95;98952.13;10456231;28;20032;-80
2023/07/01 09:18:25;;;;;;;9.05;4.88;;;;;;;28.90;42.47;98935.47;10454115;28;20045;-82
2023/07/01 09:23:29;;;;;;;8.48;5.18;;;;;;;29.06;42.55;98941.84;10438450;28;20037;-81
2023/07/01 09:28:31;;;;;;;7.65;5.35;;;;;;;28.70;42.55;98941.22;10489693;28;20067;-83
2023/07/01 09:33:37;;;;;;;7.85;4.85;;;;;;;28.10;44.01;98932.28;10478853;28;20492;-83
2023/07/01 09:38:52;;;;;;;6.03;5.03;;;;;;;27.40;45.43;98936.31;10479886;28;20044;-82
2023/07/01 09:43:56;;;;;;;10.52;5.30;;;;;;;26.96;46.47;98923.59;10455969;28;20423;-82
2023/07/01 09:49:00;;;;;;;9.18;5.50;;;;;;;26.50;47.84;98913.22;10483873;28;20037;-83
2023/07/01 09:54:22;;;;;;;6.90;5.53;;;;;;;26.20;48.57;98902.91;10447447;28;20048;-83
2023/07/01 09:59:25;;;;;;;7.53;4.97;;;;;;;26.14;49.22;98892.16;10468777;28;20040;-85
2023/07/01 10:04:28;;;;;;;8.25;5.70;;;;;;;26.08;49.90;98891.06;10477902;28;20041;-82
2023/07/01 10:09:31;;;;;;;6.30;5.30;;;;;;;26.04;49.95;98878.31;10461450;28;20029;-86
2023/07/01 10:14:34;;;;;;;5.82;5.10;;;;;;;26.32;48.75;98876.97;10445790;28;20041;-85
2023/07/01 10:19:36;;;;;;;9.73;5.85;;;;;;;26.20;49.12;98866.34;10471840;28;20047;-83
2023/07/01 10:24:42;;;;;;;8.18;5.65;;;;;;;26.30;49.33;98863.34;10477517;28;20056;-84
2023/07/01 10:29:54;;;;;;;10.48;5.10;;;;;;;26.54;48.65;98871.75;10495077;28;20068;-83
2023/07/01 10:35:02;;;;;;;7.72;5.32;;;;;;;26.55;49.55;98867.72;10429930;28;20048;-82
2023/07/01 10:40:28;;;;;;;7.20;5.55;;;;;;;26.44;49.60;98874.34;10447126;28;20043;-82
2023/07/01 10:45:37;;;;;;;7.97;4.90;;;;;;;25.99;50.92;98882.38;10485796;28;20136;-83
2023/07/01 10:51:04;;;;;;;7.43;5.43;;;;;;;25.72;53.58;98873.22;10452712;28;20523;-82
2023/07/01 10:56:13;;;;;;;6.47;5.30;;;;;;;25.34;54.99;98875.38;10441134;28;20064;-88
2023/07/01 11:01:41;;;;;;;6.57;4.93;;;;;;;25.02;57.27;98882.25;10419437;28;20553;-82
2023/07/01 11:06:50;;;;;;;5.60;4.50;;;;;;;24.70;58.89;98885.41;10454706;28;20075;-82
2023/07/01 11:11:54;;;;;;;6.13;3.80;;;;;;;24.09;56.94;98890.84;10444696;28;20051;-84
2023/07/01 11:17:05;;;;;;;7.07;4.03;;;;;;;24.04;57.67;98891.28;10460139;28;20404;-85
2023/07/01 11:22:12;;;;;;;5.13;3.63;;;;;;;23.97;58.14;98886.56;10476332;28;20052;-86
2023/07/01 11:27:17;;;;;;;4.80;3.20;;;;;;;24.02;58.65;98882.50;10475729;28;20501;-86
2023/07/01 11:32:19;;;;;;;2.85;2.20;;;;;;;23.93;59.07;98885.78;10427426;28;20048;-91
2023/07/01 11:37:28;;;;;;;3.72;2.70;;;;;;;24.18;56.10;98877.16;10442651;28;20043;-85
2023/07/01 11:42:30;;;;;;;3.10;2.63;;;;;;;24.52;54.96;98868.00;10468110;28;20037;-86
2023/07/01 11:47:33;;;;;;;3.10;2.50;;;;;;;24.68;54.13;98870.22;10494595;28;20056;-87
2023/07/01 11:52:35;;;;;;;3.20;2.88;;;;;;;24.72;54.90;98873.78;10464783;28;20041;-85
2023/07/01 11:57:40;;;;;;;3.70;2.50;;;;;;;24.69;53.82;98864.19;10513363;28;20048;-87
2023/07/01 12:02:42;;;;;;;4.10;3.05;;;;;;;24.45;54.25;98851.25;10497518;28;20411;-86
2023/07/01 12:07:55;;;;;;;2.97;2.50;;;;;;;24.43;54.01;98840.44;10481325;28;20040;-88
2023/07/01 12:12:57;;;;;;;2.55;2.00;;;;;;;24.41;52.06;98834.47;10494121;28;20045;-85
2023/07/01 12:18:20;;;;;;;3.17;2.17;;;;;;;24.40;51.53;98834.88;10492753;28;20407;-86
2023/07/01 12:23:25;;;;;;;3.78;2.47;;;;;;;24.42;51.62;98840.88;10480522;28;20054;-87
2023/07/01 12:28:27;;;;;;;3.58;2.80;;;;;;;24.26;51.98;98833.00;10511984;28;20044;-86
2023/07/01 12:33:34;;;;;;;3.83;2.92;;;;;;;23.85;52.87;98831.03;10497393;28;20051;-84
2023/07/01 12:38:36;;;;;;;4.65;3.22;;;;;;;23.74;53.97;98835.91;10496127;28;20043;-85
2023/07/01 12:43:40;;;;;;;3.72;3.00;;;;;;;23.53;55.54;98845.28;10479418;28;20047;-86
2023/07/01 12:48:43;;;;;;;4.68;3.53;;;;;;;23.21;58.99;98867.09;10410467;28;1120684;-88
2023/07/01 12:53:45;;;;;;;3.80;3.28;;;;;;;22.72;62.13;98888.47;10444108;28;20049;-88
2023/07/01 12:58:48;;;;;;;5.53;3.85;;;;;;;22.12;65.76;98898.63;10463835;28;20037;-90
2023/07/01 13:03:50;;;;;;;5.07;3.63;;;;;;;21.70;69.30;98920.94;10426627;28;20041;-88
2023/07/01 13:08:53;;;;;;;7.03;3.75;;;;;;;21.34;71.90;98943.97;10481700;28;20044;-88
2023/07/01 13:13:55;;;;;;;3.50;2.85;;;;;;;20.40;73.95;98974.56;10455463;28;20041;-89
2023/07/01 13:19:01;;;;;;;4.85;2.70;;;;;;;19.18;79.08;98971.00;10450004;28;20056;-89
2023/07/01 13:24:18;;;;;;;3.72;2.70;;;;;;;18.62;80.51;98936.50;10435241;28;20041;-89
2023/07/01 13:29:20;;;;;;;3.35;2.65;;;;;;;18.49;80.78;98935.13;10447404;28;20048;-86
2023/07/01 13:34:23;;;;;;;4.22;2.13;;;;;;;18.45;80.13;98920.41;10427250;28;20052;-88
2023/07/01 13:39:39;;;;;;;3.00;2.28;;;;;;;18.64;79.55;98911.16;10436228;28;20059;-88
2023/07/01 13:44:41;;;;;;;2.45;2.13;;;;;;;18.88;80.34;98895.97;10464990;28;20056;-89
2023/07/01 13:49:43;;;;;;;2.95;2.50;;;;;;;19.26;80.87;98878.09;10431637;28;20040;-85
2023/07/01 13:54:45;;;;;;;5.82;2.83;;;;;;;19.58;80.51;98875.66;10474774;28;20036;-84
2023/07/01 13:59:48;;;;;;;4.55;3.97;;;;;;;19.74;80.24;98883.75;10463203;28;20044;-86
2023/07/01 14:04:50;;;;;;;5.95;4.75;;;;;;;19.97;80.54;98876.00;10453149;28;20053;-86
2023/07/01 14:09:52;;;;;;;5.65;3.78;;;;;;;20.11;80.23;98869.69;10470557;28;20052;-85
2023/07/01 14:14:54;;;;;;;7.18;4.60;;;;;;;20.11;79.72;98870.50;10418929;28;20033;-86
2023/07/01 14:19:58;;;;;;;6.15;4.18;;;;;;;20.18;80.77;98862.19;10482381;28;20044;-86
2023/07/01 14:25:00;;;;;;;5.88;3.85;;;;;;;20.11;81.49;98859.34;10445554;28;20045;-86
2023/07/01 14:30:11;;;;;;;6.78;4.05;;;;;;;19.97;81.64;98864.84;10451310;28;20041;-85
2023/07/01 14:35:15;;;;;;;14.02;6.10;;;;;;;19.91;82.00;98869.16;10436094;28;20044;-86
2023/07/01 14:40:18;;;;;;;10.18;5.32;;;;;;;19.91;83.27;98866.38;10447402;28;20043;-86
2023/07/01 14:45:20;;;;;;;9.73;5.22;;;;;;;19.88;83.78;98864.38;10447428;28;20048;-85
2023/07/01 14:50:22;;;;;;;8.57;5.32;;;;;;;19.92;83.11;98856.03;10467717;28;20409;-86
2023/07/01 14:55:24;;;;;;;9.13;3.92;;;;;;;19.74;82.18;98853.94;10465679;28;20045;-85
2023/07/01 15:00:26;;;;;;;7.43;3.40;;;;;;;19.74;82.49;98858.69;10394165;28;20045;-86
2023/07/01 15:05:28;;;;;;;5.40;3.33;;;;;;;19.53;83.32;98853.72;10410168;28;20045;-87
2023/07/01 15:10:35;;;;;;;4.50;2.50;;;;;;;19.47;84.02;98861.66;10411039;28;20445;-86
2023/07/01 15:15:38;;;;;;;5.18;2.30;;;;;;;19.45;83.65;98863.22;10426283;28;20056;-85
2023/07/01 15:20:40;;;;;;;5.53;2.60;;;;;;;19.54;83.59;98863.72;10393863;28;20497;-86
2023/07/01 15:25:42;;;;;;;3.63;2.15;;;;;;;19.64;81.92;98862.22;10421915;28;20530;-86
2023/07/01 15:30:45;;;;;;;4.45;3.13;;;;;;;19.62;81.08;98867.38;10446380;28;20042;-85
2023/07/01 15:35:47;;;;;;;2.25;1.83;;;;;;;19.68;81.18;98857.47;10425010;28;20542;-86
2023/07/01 15:40:50;;;;;;;5.40;2.38;;;;;;;19.60;81.20;98872.50;10436573;28;20043;-87
2023/07/01 15:45:52;;;;;;;5.13;2.50;;;;;;;19.00;80.63;98887.38;10437328;28;20072;-85
2023/07/01 15:50:55;;;;;;;5.10;2.60;;;;;;;18.48;81.84;98893.84;10454803;28;20033;-85
2023/07/01 15:55:57;;;;;;;3.28;2.40;;;;;;;18.07;83.48;98902.00;10469952;28;20041;-86
2023/07/01 16:00:59;;;;;;;6.00;2.58;;;;;;;17.75;85.72;98890.41;10472328;28;20049;-86
2023/07/01 16:06:02;;;;;;;5.25;1.92;;;;;;;17.88;85.94;98871.59;10457028;28;20056;-86
2023/07/01 16:11:24;;;;;;;3.70;2.30;;;;;;;17.94;84.69;98870.06;10440690;28;20431;-85
2023/07/01 16:16:27;;;;;;;3.15;2.47;;;;;;;17.92;83.97;98862.13;10437978;28;20044;-85
2023/07/01 16:21:29;;;;;;;4.35;2.30;;;;;;;18.13;83.66;98867.19;10446515;28;20048;-85
2023/07/01 16:26:42;;;;;;;8.75;2.67;;;;;;;18.32;83.08;98867.06;10472742;28;20049;-86
2023/07/01 16:31:44;;;;;;;5.10;2.67;;;;;;;18.42;82.18;98854.50;10457270;28;20519;-85
2023/07/01 16:36:46;;;;;;;6.18;2.60;;;;;;;18.51;82.57;98852.22;10419148;28;20091;-86
2023/07/01 16:41:48;;;;;;;4.00;2.03;;;;;;;18.48;81.95;98849.41;10431426;28;20045;-84
2023/07/01 16:46:50;;;;;;;4.53;2.42;;;;;;;18.59;82.90;98842.81;10398291;28;20060;-87
2023/07/01 16:51:52;;;;;;;5.43;3.25;;;;;;;18.58;82.31;98838.44;10396952;28;20489;-86
2023/07/01 16:56:56;;;;;;;4.28;2.20;;;;;;;18.49;81.94;98845.44;10459246;28;20032;-86
2023/07/01 17:01:58;;;;;;;3.10;1.90;;;;;;;18.37;81.15;98829.81;10454800;28;20416;-86
2023/07/01 17:07:01;;;;;;;5.10;2.40;;;;;;;18.39;81.52;98825.47;10471758;28;20045;-85
2023/07/01 17:12:04;;;;;;;2.60;2.13;;;;;;;18.36;81.39;98819.91;10438580;28;20049;-86
2023/07/01 17:17:17;;;;;;;7.78;2.40;;;;;;;18.55;80.99;98816.16;10471491;28;20132;-86
2023/07/01 17:22:22;;;;;;;4.45;2.47;;;;;;;18.64;80.80;98813.94;10421844;28;20056;-87
2023/07/01 17:27:24;;;;;;;4.53;2.20;;;;;;;18.84;79.84;98812.56;10454967;28;20044;-85
2023/07/01 17:32:27;;;;;;;5.70;2.20;;;;;;;18.94;79.10;98797.97;10471036;28;20036;-88
2023/07/01 17:37:29;;;;;;;3.95;2.00;;;;;;;18.84;77.93;98798.66;10453626;28;20536;-86
2023/07/01 17:42:31;;;;;;;5.60;2.13;;;;;;;18.77;76.82;98789.47;10470678;28;20488;-85
2023/07/01 17:47:33;;;;;;;3.08;1.98;;;;;;;18.64;76.50;98788.91;10470045;28;20059;-86
2023/07/01 17:52:35;;;;;;;3.60;2.13;;;;;;;18.43;76.25;98783.91;10469555;28;20052;-86
2023/07/01 17:57:37;;;;;;;4.30;2.40;;;;;;;18.27;76.92;98794.41;10452952;28;20048;-85
2023/07/01 18:02:39;;;;;;;5.65;2.45;;;;;;;18.27;77.54;98778.53;10452428;28;20547;-84
2023/07/01 18:07:42;;;;;;;4.80;1.92;;;;;;;18.25;76.89;98786.47;10469747;28;20045;-84
2023/07/01 18:12:44;;;;;;;3.72;2.10;;;;;;;18.29;76.99;98787.28;10466528;28;20052;-86
2023/07/01 18:17:47;;;;;;;3.63;2.05;;;;;;;18.16;77.30;98799.81;10411067;28;20044;-86
2023/07/01 18:22:49;;;;;;;5.53;2.38;;;;;;;18.08;77.84;98793.38;10431346;28;20707;-84
2023/07/01 18:27:51;;;;;;;5.13;1.70;;;;;;;17.95;77.24;98793.97;10431225;28;20051;-84
2023/07/01 18:32:54;;;;;;;4.25;2.30;;;;;;;17.90;77.48;98791.53;10436947;28;20041;-84
2023/07/01 18:37:56;;;;;;;3.85;2.10;;;;;;;17.82;77.35;98785.06;10425347;28;20499;-85
2023/07/01 18:42:58;;;;;;;3.60;2.00;;;;;;;17.73;77.32;98790.91;10436961;28;20037;-84
2023/07/01 18:48:00;;;;;;;3.05;2.20;;;;;;;17.63;78.16;98802.59;10456168;28;20052;-85
2023/07/01 18:53:02;;;;;;;5.15;2.10;;;;;;;17.63;78.73;98783.19;10477452;28;20052;-85
2023/07/01 18:58:04;;;;;;;2.58;1.88;;;;;;;17.71;78.47;98784.94;10480235;28;20048;-84
2023/07/01 19:03:07;;;;;;;3.83;2.08;;;;;;;17.71;78.20;98786.91;10485538;28;20044;-88
2023/07/01 19:08:10;;;;;;;3.67;1.83;;;;;;;17.62;78.87;98776.03;10475097;28;20044;-86
2023/07/01 19:13:12;;;;;;;3.83;2.15;;;;;;;17.69;78.73;98789.22;10461775;28;20051;-89
2023/07/01 19:18:16;;;;;;;3.13;1.65;;;;;;;17.68;78.75;98780.09;10478624;28;20514;-84
2023/07/01 19:23:19;;;;;;;7.68;2.10;;;;;;;17.70;78.63;98772.25;10494618;28;20032;-87
2023/07/01 19:28:22;;;;;;;3.47;1.80;;;;;;;17.66;78.54;98770.53;10477549;28;20040;-84
2023/07/01 19:33:24;;;;;;;3.67;1.90;;;;;;;17.52;78.83;98762.00;10472015;28;20380;-84
2023/07/01 19:38:26;;;;;;;3.90;2.10;;;;;;;17.48;79.11;98756.41;10488825;28;20044;-86
2023/07/01 19:43:29;;;;;;;3.58;1.70;;;;;;;17.39;79.47;98761.41;10470148;28;20048;-85
2023/07/01 19:48:36;;;;;;;3.63;1.80;;;;;;;17.36;79.77;98751.88;10495256;28;20051;-84
2023/07/01 19:53:38;;;;;;;2.45;1.70;;;;;;;17.30;79.74;98760.88;10479711;28;20028;-88
2023/07/01 19:58:40;;;;;;;2.92;1.95;;;;;;;17.25;80.33;98756.44;10504989;28;20403;-89
2023/07/01 20:03:42;;;;;;;5.43;2.05;;;;;;;17.21;80.69;98755.59;10460552;28;20043;-88
2023/07/01 20:08:44;;;;;;;1.80;1.50;;;;;;;17.15;80.48;98755.09;10463305;28;20555;-87
2023/07/01 20:13:46;;;;;;;3.75;2.00;;;;;;;17.22;80.70;98751.66;10458599;28;20036;-85
2023/07/01 20:18:49;;;;;;;4.32;2.53;;;;;;;17.20;80.41;98765.09;10460451;28;20495;-84
2023/07/01 20:23:52;;;;;;;5.07;2.00;;;;;;;17.18;80.33;98756.31;10479462;28;20041;-84
2023/07/01 20:28:57;;;;;;;4.70;2.40;;;;;;;17.18;80.46;98751.59;10474218;28;20058;-86
2023/07/01 20:34:01;;;;;;;4.00;2.00;;;;;;;17.16;80.25;98756.69;10490214;28;20040;-88
2023/07/01 20:39:03;;;;;;;4.30;1.75;;;;;;;17.21;80.35;98752.03;10481540;28;20045;-89
2023/07/01 20:44:09;;;;;;;5.57;1.77;;;;;;;17.20;80.25;98747.66;10462337;28;20489;-89
2023/07/01 20:49:14;;;;;;;2.80;2.08;;;;;;;17.18;80.55;98750.75;10474761;28;20049;-85
2023/07/01 20:54:16;;;;;;;4.97;2.30;;;;;;;17.28;80.17;98750.16;10491940;28;20511;-84
2023/07/01 20:59:18;;;;;;;4.32;2.22;;;;;;;17.27;80.80;98737.47;10437604;28;20037;-86
2023/07/01 21:04:23;;;;;;;2.97;1.88;;;;;;;17.24;80.97;98731.88;10460978;28;20523;-85
2023/07/01 21:09:26;;;;;;;5.00;2.28;;;;;;;17.27;81.06;98742.22;10472066;28;20044;-86
2023/07/01 21:14:30;;;;;;;3.42;2.25;;;;;;;17.39;81.07;98728.16;10455362;28;20049;-86
2023/07/01 21:19:33;;;;;;;3.17;1.92;;;;;;;17.44;81.14;98733.38;10461048;28;20040;-85
2023/07/01 21:24:35;;;;;;;3.03;2.03;;;;;;;17.32;81.46;98736.34;10458228;28;20408;-87
2023/07/01 21:29:37;;;;;;;5.70;1.90;;;;;;;17.27;81.18;98739.44;10443039;28;20044;-85
2023/07/01 21:34:39;;;;;;;3.05;1.90;;;;;;;17.22;80.66;98739.75;10436185;28;20048;-85
2023/07/01 21:39:41;;;;;;;1.90;1.60;;;;;;;17.25;80.23;98736.25;10460762;28;20055;-84
2023/07/01 21:44:44;;;;;;;4.63;2.28;;;;;;;17.29;80.55;98729.56;10469693;28;20048;-85
2023/07/01 21:49:46;;;;;;;5.45;2.28;;;;;;;17.34;80.19;98728.44;10472737;28;20048;-85
2023/07/01 21:54:48;;;;;;;2.78;2.10;;;;;;;17.42;80.02;98736.50;10483755;28;20415;-84
2023/07/01 21:59:52;;;;;;;3.17;1.80;;;;;;;17.42;80.35;98725.44;10483038;28;20032;-84
2023/07/01 22:04:54;;;;;;;3.33;1.80;;;;;;;17.47;80.00;98725.09;10505302;28;20036;-84
2023/07/01 22:09:57;;;;;;;2.05;1.83;;;;;;;17.36;80.27;98735.25;10467315;28;20530;-85
2023/07/01 22:14:59;;;;;;;4.95;1.80;;;;;;;17.35;80.13;98727.28;10468942;28;20467;-83
2023/07/01 22:20:01;;;;;;;5.43;2.20;;;;;;;17.38;79.74;98729.31;10471919;28;20051;-85
2023/07/01 22:25:04;;;;;;;3.03;2.13;;;;;;;17.39;79.79;98722.59;10492661;28;20506;-85
2023/07/01 22:30:11;;;;;;;5.70;2.20;;;;;;;17.39;80.16;98722.59;10487607;28;20551;-85
2023/07/01 22:35:13;;;;;;;3.67;2.03;;;;;;;17.41;79.98;98721.06;10503602;28;20036;-85
2023/07/01 22:40:15;;;;;;;3.90;2.05;;;;;;;17.47;79.43;98724.28;10448892;28;20049;-86
2023/07/01 22:45:18;;;;;;;3.17;1.77;;;;;;;17.43;79.61;98707.63;10458931;28;20060;-83
2023/07/01 22:50:21;;;;;;;4.95;2.38;;;;;;;17.44;79.17;98713.97;10479340;28;20044;-86
2023/07/01 22:55:23;;;;;;;2.45;1.67;;;;;;;17.40;79.38;98718.66;10485551;28;20032;-84
2023/07/01 23:00:25;;;;;;;2.17;1.83;;;;;;;17.37;80.65;98720.22;10496617;28;20527;-87
2023/07/01 23:05:28;;;;;;;3.67;1.90;;;;;;;17.25;81.30;98714.88;10498672;28;20055;-86
2023/07/01 23:10:30;;;;;;;2.47;1.95;;;;;;;17.20;81.82;98720.72;10478389;28;20064;-85
2023/07/01 23:15:32;;;;;;;2.55;1.80;;;;;;;17.03;81.71;98730.34;10471893;28;20032;-87
2023/07/01 23:20:39;;;;;;;2.97;1.75;;;;;;;16.91;82.24;98730.53;10507949;28;20033;-84
2023/07/01 23:25:44;;;;;;;2.90;1.60;;;;;;;16.84;82.50;98733.19;10453748;28;20048;-86